createdAt,value
2019-02-11T05:31:32.780Z,1.97
2019-02-11T05:37:29.692Z,1.73
2019-02-11T05:39:58.425Z,1.80
2019-02-11T05:42:26.895Z,1.97
2019-02-11T05:44:55.328Z,1.40
2019-02-11T05:47:23.792Z,1.83
2019-02-11T05:49:52.318Z,1.67
2019-02-11T05:56:01.822Z,2.50
2019-02-11T06:02:11.924Z,1.70
2019-02-11T06:08:21.291Z,1.60
2019-02-11T06:14:33.225Z,2.10
2019-02-11T06:20:42.878Z,1.77
2019-02-11T06:26:52.542Z,3.47
2019-02-11T06:33:02.367Z,2.30
2019-02-11T06:39:13.371Z,2.40
2019-02-11T06:41:42.156Z,3.13
2019-02-11T06:47:40.114Z,2.57
2019-02-11T06:50:12.095Z,2.83
2019-02-11T06:52:40.523Z,2.30
2019-02-11T06:55:11.349Z,2.40
2019-02-11T06:57:39.830Z,3.53
2019-02-11T07:03:49.346Z,2.30
2019-02-11T07:09:59.250Z,2.00
2019-02-11T07:16:09.234Z,2.37
2019-02-11T07:18:37.663Z,2.57
2019-02-11T07:21:06.571Z,2.90
2019-02-11T07:23:35.028Z,2.00
2019-02-11T07:29:44.754Z,2.20
2019-02-11T07:32:13.571Z,2.37
2019-02-11T07:38:10.607Z,2.50
2019-02-11T07:40:39.087Z,2.40
2019-02-11T07:43:24.287Z,2.50
2019-02-11T07:45:54.383Z,2.10
2019-02-11T07:52:04.431Z,2.30
2019-02-11T07:54:32.936Z,2.90
2019-02-11T07:57:01.377Z,2.57
2019-02-11T07:59:30.189Z,2.70
2019-02-11T08:01:58.619Z,2.60
2019-02-11T08:04:27.469Z,2.50
2019-02-11T08:10:24.698Z,2.50
2019-02-11T08:12:53.344Z,2.70
2019-02-11T08:15:21.770Z,2.50
2019-02-11T08:21:19.138Z,2.73
2019-02-11T08:23:47.599Z,2.90
2019-02-11T08:26:16.028Z,3.00
2019-02-11T08:28:44.458Z,3.13
2019-02-11T08:31:12.995Z,3.40
2019-02-11T08:37:22.736Z,2.70
2019-02-11T08:39:51.251Z,2.90
2019-02-11T08:45:48.714Z,2.53
2019-02-11T08:48:17.527Z,2.70
2019-02-11T08:50:45.957Z,2.50
2019-02-11T08:53:14.388Z,3.00
2019-02-11T08:55:42.837Z,2.80
2019-02-11T08:58:11.275Z,2.50
2019-02-11T09:00:39.704Z,2.80
2019-02-11T09:03:08.235Z,2.40
2019-02-11T09:05:36.923Z,2.47
2019-02-11T09:11:34.277Z,2.10
2019-02-11T09:14:02.708Z,2.27
2019-02-11T09:16:31.242Z,1.93
2019-02-11T09:18:59.676Z,1.70
2019-02-11T09:21:28.425Z,1.73
2019-02-11T09:23:56.883Z,3.30
2019-02-11T09:26:25.313Z,1.83
2019-02-11T09:28:53.738Z,2.63
2019-02-11T09:31:22.406Z,2.13
2019-02-11T09:33:50.906Z,1.90
2019-02-11T09:36:19.635Z,2.07
2019-02-11T09:38:48.101Z,2.10
2019-02-11T09:41:16.531Z,2.80
2019-02-11T09:43:44.971Z,2.93
2019-02-11T09:49:41.731Z,2.13
2019-02-11T09:52:10.417Z,3.33
2019-02-11T09:54:38.946Z,2.73
2019-02-11T09:57:07.671Z,2.20
2019-02-11T09:59:36.383Z,2.40
2019-02-11T10:02:06.561Z,2.93
2019-02-11T10:04:35.294Z,2.80
2019-02-11T10:07:03.719Z,6.83
2019-02-11T10:09:32.470Z,4.50
2019-02-11T10:12:00.896Z,3.70
2019-02-11T10:14:29.326Z,5.00
2019-02-11T10:16:57.781Z,5.03
2019-02-11T10:19:26.217Z,3.47
2019-02-11T10:21:55.006Z,4.57
2019-02-11T10:24:23.466Z,3.30
2019-02-11T10:26:51.903Z,3.30
2019-02-11T10:29:20.664Z,4.37
2019-02-11T10:31:49.455Z,4.03
2019-02-11T10:34:17.891Z,3.23
2019-02-11T10:36:46.319Z,3.10
2019-02-11T10:39:14.798Z,6.27
2019-02-11T10:45:25.163Z,3.53
2019-02-11T10:47:53.944Z,4.40
2019-02-11T10:50:22.377Z,4.00
2019-02-11T10:52:51.528Z,5.27
2019-02-11T10:55:21.766Z,3.73
2019-02-11T10:57:50.546Z,4.70
2019-02-11T11:03:47.490Z,5.53
2019-02-11T11:09:45.248Z,3.17
2019-02-11T11:12:13.874Z,3.93
2019-02-11T11:14:42.307Z,3.30
2019-02-11T11:17:11.003Z,4.77
2019-02-11T11:19:39.471Z,3.33
2019-02-11T11:22:08.211Z,5.00
2019-02-11T11:28:05.968Z,4.23
2019-02-11T11:30:34.780Z,3.67
2019-02-11T11:33:03.679Z,2.70
2019-02-11T11:35:32.114Z,2.53
2019-02-11T11:41:29.335Z,3.00
2019-02-11T11:47:27.081Z,4.27
2019-02-11T11:49:55.558Z,3.90
2019-02-11T11:52:23.996Z,1.77
2019-02-11T11:58:21.551Z,4.03
2019-02-11T12:00:50.019Z,3.63
2019-02-11T12:03:18.464Z,6.27
2019-02-11T12:05:46.950Z,1.90
2019-02-11T12:08:15.410Z,3.02
2019-02-11T12:10:43.859Z,6.23
2019-02-11T12:13:22.282Z,3.20
2019-02-11T12:15:42.880Z,4.23
2019-02-11T12:18:11.385Z,2.87
2019-02-11T13:18:31.241Z,3.83
2019-02-11T13:21:00.075Z,1.60
2019-02-11T13:23:28.517Z,1.40
2019-02-11T13:25:57.018Z,2.57
2019-02-11T13:28:25.585Z,1.90
2019-02-11T13:30:54.044Z,2.07
2019-02-11T13:33:22.552Z,1.57
2019-02-11T13:35:51.058Z,1.53
2019-02-11T13:38:19.490Z,2.50
2019-02-11T13:40:47.933Z,2.33
2019-02-11T13:43:16.554Z,4.43
2019-02-11T13:45:45.073Z,2.40
2019-02-11T13:48:14.162Z,2.27
2019-02-11T13:50:42.997Z,1.63
2019-02-11T13:53:11.506Z,3.53
2019-02-11T13:55:40.076Z,2.63
2019-02-11T13:58:08.894Z,2.53
2019-02-11T14:00:37.487Z,2.70
2019-02-11T14:03:07.073Z,2.37
2019-02-11T14:05:35.847Z,2.37
2019-02-11T14:11:45.878Z,2.60
2019-02-11T14:14:14.378Z,3.33
2019-02-11T14:16:42.880Z,3.67
2019-02-11T14:19:11.449Z,3.90
2019-02-11T14:21:40.015Z,2.20
2019-02-11T14:24:08.451Z,3.37
2019-02-11T14:30:09.354Z,3.07
2019-02-11T14:36:06.743Z,3.17
2019-02-11T14:42:05.268Z,2.63
2019-02-11T14:44:33.753Z,3.40
2019-02-11T14:50:43.138Z,3.33
2019-02-11T14:53:11.763Z,3.63
2019-02-11T14:55:40.194Z,3.40
2019-02-11T14:58:08.975Z,6.37
2019-02-11T15:00:37.412Z,3.37
2019-02-11T15:03:05.839Z,3.27
2019-02-11T15:09:03.091Z,2.23
2019-02-11T15:11:31.732Z,6.03
2019-02-11T15:17:45.544Z,1.63
2019-02-11T15:20:15.715Z,5.20
2019-02-11T15:26:13.283Z,2.43
2019-02-11T15:28:41.717Z,2.10
2019-02-11T15:31:10.177Z,4.83
2019-02-11T15:33:38.631Z,2.40
2019-02-11T15:36:07.074Z,2.10
2019-02-11T15:38:35.538Z,1.53
2019-02-11T15:41:04.297Z,1.70
2019-02-11T15:43:32.723Z,2.20
2019-02-11T15:49:29.691Z,1.70
2019-02-11T15:55:26.791Z,1.90
2019-02-11T16:01:23.895Z,3.00
2019-02-11T16:03:52.346Z,1.50
2019-02-11T16:10:02.133Z,2.67
2019-02-11T16:12:30.903Z,4.93
2019-02-11T16:14:59.344Z,2.50
2019-02-11T16:17:27.819Z,2.40
2019-02-11T16:19:56.256Z,2.37
2019-02-11T16:22:24.946Z,3.70
2019-02-11T16:24:53.399Z,3.43
2019-02-11T16:31:03.041Z,3.50
2019-02-11T16:37:12.519Z,1.90
2019-02-11T16:39:40.955Z,2.40
2019-02-11T16:42:09.899Z,2.07
2019-02-11T16:44:38.638Z,3.37
2019-02-11T16:47:07.121Z,2.98
2019-02-11T16:49:35.590Z,2.20
2019-02-11T16:52:04.198Z,2.47
2019-02-11T16:54:32.628Z,3.37
2019-02-11T16:57:01.064Z,3.63
2019-02-11T16:59:29.502Z,3.70
2019-02-11T17:05:39.039Z,2.20
2019-02-11T17:08:07.463Z,1.93
2019-02-11T17:10:35.899Z,3.77
2019-02-11T17:13:04.663Z,2.60
2019-02-11T17:19:14.422Z,2.40
2019-02-11T17:21:42.863Z,3.33
2019-02-11T17:24:11.280Z,3.03
2019-02-11T17:26:39.825Z,3.97
2019-02-11T17:29:08.256Z,7.27
2019-02-11T17:31:36.758Z,3.00
2019-02-11T17:34:05.230Z,4.00
2019-02-11T17:36:33.658Z,3.27
2019-02-11T17:39:02.086Z,3.00
2019-02-11T17:41:30.551Z,3.30
2019-02-11T17:43:58.984Z,3.60
2019-02-11T17:46:27.423Z,3.73
2019-02-11T17:48:55.896Z,3.40
2019-02-11T17:51:24.727Z,3.30
2019-02-11T17:53:53.588Z,3.20
2019-02-11T17:56:22.379Z,3.40
2019-02-11T18:02:32.051Z,4.63
2019-02-11T18:05:00.484Z,4.70
2019-02-11T18:07:28.909Z,4.20
2019-02-11T18:09:57.610Z,4.20
2019-02-11T18:12:26.044Z,3.77
2019-02-11T18:18:23.274Z,3.90
2019-02-11T18:20:51.810Z,3.80
2019-02-11T18:23:20.456Z,3.97
2019-02-11T18:29:17.404Z,4.50
2019-02-11T18:31:45.944Z,4.13
2019-02-11T18:34:14.398Z,4.37
2019-02-11T18:36:42.830Z,4.20
2019-02-11T18:39:11.866Z,4.20
2019-02-11T18:41:40.289Z,3.77
2019-02-11T18:44:08.715Z,3.70
2019-02-11T18:46:37.627Z,3.80
2019-02-11T18:49:06.051Z,4.07
2019-02-11T18:51:34.799Z,4.00
2019-02-11T18:57:32.198Z,3.80
2019-02-11T19:00:00.674Z,4.10
2019-02-11T19:02:29.432Z,4.03
2019-02-11T19:08:26.246Z,3.93
2019-02-11T19:14:23.663Z,4.83
2019-02-11T19:20:20.971Z,5.43
2019-02-11T19:26:18.736Z,6.10
2019-02-11T19:28:47.227Z,6.47
2019-02-11T19:34:44.062Z,5.53
2019-02-11T19:40:41.379Z,6.27
2019-02-11T19:46:45.869Z,6.20
2019-02-11T19:49:14.433Z,6.90
2019-02-11T19:55:24.143Z,7.23
2019-02-11T19:57:52.900Z,8.17
2019-02-11T20:00:22.420Z,7.00
2019-02-11T20:06:20.476Z,7.67
2019-02-11T20:12:18.194Z,6.90
2019-02-11T20:14:46.711Z,7.17
2019-02-11T20:20:56.322Z,8.13
2019-02-11T20:23:24.835Z,7.67
2019-02-11T20:29:22.383Z,7.50
